sensor_id;sensor_type;location;lat;lon;timestamp;pressure;altitude;pressure_sealevel;temperature;humidity
79455;BME280;68900;52.134;5.420;2023-04-24T00:00:20;99925.25;;;10.13;87.10
79455;BME280;68900;52.134;5.420;2023-04-24T00:02:47;99943.63;;;10.10;87.19
79455;BME280;68900;52.134;5.420;2023-04-24T00:05:15;99940.94;;;10.10;86.85
79455;BME280;68900;52.134;5.420;2023-04-24T00:13:08;99953.75;;;10.08;85.92
79455;BME280;68900;52.134;5.420;2023-04-24T00:15:41;99954.25;;;10.03;85.82
79455;BME280;68900;52.134;5.420;2023-04-24T00:18:07;99954.41;;;10.02;86.16
79455;BME280;68900;52.134;5.420;2023-04-24T00:20:34;99955.44;;;10.01;86.70
79455;BME280;68900;52.134;5.420;2023-04-24T00:23:04;99956.75;;;10.05;86.34
79455;BME280;68900;52.134;5.420;2023-04-24T00:25:31;99958.28;;;10.07;86.27
79455;BME280;68900;52.134;5.420;2023-04-24T00:27:57;99956.75;;;10.05;86.06
79455;BME280;68900;52.134;5.420;2023-04-24T00:30:41;99956.63;;;9.98;86.63
79455;BME280;68900;52.134;5.420;2023-04-24T00:33:08;99967.91;;;10.02;86.78
79455;BME280;68900;52.134;5.420;2023-04-24T00:39:09;99969.91;;;9.92;87.00
79455;BME280;68900;52.134;5.420;2023-04-24T00:41:39;99963.53;;;9.93;86.64
79455;BME280;68900;52.134;5.420;2023-04-24T00:44:15;99968.72;;;9.94;86.21
79455;BME280;68900;52.134;5.420;2023-04-24T00:46:42;99964.19;;;9.95;86.26
79455;BME280;68900;52.134;5.420;2023-04-24T00:49:08;99966.22;;;9.93;86.86
79455;BME280;68900;52.134;5.420;2023-04-24T00:51:35;99969.22;;;9.90;87.05
79455;BME280;68900;52.134;5.420;2023-04-24T00:54:05;99969.22;;;9.90;87.08
79455;BME280;68900;52.134;5.420;2023-04-24T00:56:32;99981.69;;;9.91;87.33
79455;BME280;68900;52.134;5.420;2023-04-24T00:59:01;99984.38;;;9.91;86.98
79455;BME280;68900;52.134;5.420;2023-04-24T01:01:28;99984.72;;;9.88;87.06
79455;BME280;68900;52.134;5.420;2023-04-24T01:03:55;99984.56;;;9.89;87.30
79455;BME280;68900;52.134;5.420;2023-04-24T01:06:22;99982.19;;;9.94;87.34
79455;BME280;68900;52.134;5.420;2023-04-24T01:08:49;99979.00;;;9.91;87.21
79455;BME280;68900;52.134;5.420;2023-04-24T01:11:16;99981.38;;;9.94;87.35
79455;BME280;68900;52.134;5.420;2023-04-24T01:13:44;99984.22;;;9.92;87.33
79455;BME280;68900;52.134;5.420;2023-04-24T01:16:11;100005.94;;;9.91;87.38
79455;BME280;68900;52.134;5.420;2023-04-24T01:18:37;99992.66;;;9.89;87.71
79455;BME280;68900;52.134;5.420;2023-04-24T01:21:05;99995.84;;;9.93;87.00
79455;BME280;68900;52.134;5.420;2023-04-24T01:23:32;100000.91;;;9.96;87.67
79455;BME280;68900;52.134;5.420;2023-04-24T01:26:01;99999.03;;;9.96;86.98
79455;BME280;68900;52.134;5.420;2023-04-24T01:28:31;99999.56;;;9.92;87.50
79455;BME280;68900;52.134;5.420;2023-04-24T01:30:58;100008.63;;;9.91;87.80
79455;BME280;68900;52.134;5.420;2023-04-24T01:33:26;100004.44;;;9.96;87.20
79455;BME280;68900;52.134;5.420;2023-04-24T01:35:53;99999.56;;;9.92;87.17
79455;BME280;68900;52.134;5.420;2023-04-24T01:38:20;100003.75;;;9.94;88.01
79455;BME280;68900;52.134;5.420;2023-04-24T01:40:46;100004.59;;;9.95;88.10
79455;BME280;68900;52.134;5.420;2023-04-24T01:43:13;100007.13;;;9.96;87.75
79455;BME280;68900;52.134;5.420;2023-04-24T01:45:39;100015.22;;;9.96;87.41
79455;BME280;68900;52.134;5.420;2023-04-24T01:48:06;100012.03;;;9.93;87.89
79455;BME280;68900;52.134;5.420;2023-04-24T01:50:33;100005.63;;;9.94;88.09
79455;BME280;68900;52.134;5.420;2023-04-24T01:52:59;100012.50;;;9.96;87.63
79455;BME280;68900;52.134;5.420;2023-04-24T01:55:27;100011.34;;;9.91;87.69
79455;BME280;68900;52.134;5.420;2023-04-24T01:57:54;100014.72;;;9.93;87.40
79455;BME280;68900;52.134;5.420;2023-04-24T02:00:22;100016.41;;;9.94;87.92
79455;BME280;68900;52.134;5.420;2023-04-24T02:02:49;100014.03;;;9.91;87.33
79455;BME280;68900;52.134;5.420;2023-04-24T02:05:18;100016.22;;;9.95;88.00
79455;BME280;68900;52.134;5.420;2023-04-24T02:07:54;100004.59;;;9.95;87.51
79455;BME280;68900;52.134;5.420;2023-04-24T02:10:20;100016.22;;;9.95;87.51
79455;BME280;68900;52.134;5.420;2023-04-24T02:12:47;100016.06;;;9.97;87.87
79455;BME280;68900;52.134;5.420;2023-04-24T02:15:13;100004.78;;;10.01;87.38
79455;BME280;68900;52.134;5.420;2023-04-24T02:17:40;100014.72;;;10.01;87.75
79455;BME280;68900;52.134;5.420;2023-04-24T02:20:07;100014.56;;;10.02;87.80
79455;BME280;68900;52.134;5.420;2023-04-24T02:22:33;100009.81;;;9.96;87.93
79455;BME280;68900;52.134;5.420;2023-04-24T02:25:03;100019.09;;;9.94;87.13
79455;BME280;68900;52.134;5.420;2023-04-24T02:27:29;100014.22;;;9.97;87.64
79455;BME280;68900;52.134;5.420;2023-04-24T02:30:13;100016.72;;;9.99;87.07
79455;BME280;68900;52.134;5.420;2023-04-24T02:32:48;100010.50;;;9.98;86.80
79455;BME280;68900;52.134;5.420;2023-04-24T02:35:24;100005.78;;;10.00;87.35
79455;BME280;68900;52.134;5.420;2023-04-24T02:37:51;100012.16;;;9.99;86.94
79455;BME280;68900;52.134;5.420;2023-04-24T02:40:17;100020.44;;;9.98;87.06
79455;BME280;68900;52.134;5.420;2023-04-24T02:42:44;100013.03;;;9.92;87.83
79455;BME280;68900;52.134;5.420;2023-04-24T02:45:11;100021.09;;;9.92;87.33
79455;BME280;68900;52.134;5.420;2023-04-24T02:47:37;100018.75;;;9.89;87.91
79455;BME280;68900;52.134;5.420;2023-04-24T02:50:04;100019.09;;;9.94;87.47
79455;BME280;68900;52.134;5.420;2023-04-24T02:52:31;100012.88;;;9.93;87.41
79455;BME280;68900;52.134;5.420;2023-04-24T02:54:58;100018.25;;;9.93;87.38
79455;BME280;68900;52.134;5.420;2023-04-24T02:57:27;100023.78;;;10.00;86.79
79455;BME280;68900;52.134;5.420;2023-04-24T02:59:54;100015.56;;;10.01;86.89
79455;BME280;68900;52.134;5.420;2023-04-24T03:02:21;100007.31;;;10.03;86.53
79455;BME280;68900;52.134;5.420;2023-04-24T03:04:47;100010.50;;;9.98;87.17
79455;BME280;68900;52.134;5.420;2023-04-24T03:07:17;100017.91;;;9.96;86.95
79455;BME280;68900;52.134;5.420;2023-04-24T03:09:47;100010.50;;;9.98;86.87
79455;BME280;68900;52.134;5.420;2023-04-24T03:12:14;100012.84;;;10.01;87.20
79455;BME280;68900;52.134;5.420;2023-04-24T03:14:41;100013.53;;;10.03;87.52
79455;BME280;68900;52.134;5.420;2023-04-24T03:17:07;100006.63;;;10.01;86.82
79455;BME280;68900;52.134;5.420;2023-04-24T03:19:34;100012.34;;;9.98;87.32
79455;BME280;68900;52.134;5.420;2023-04-24T03:22:02;100009.66;;;9.98;88.11
79455;BME280;68900;52.134;5.420;2023-04-24T03:24:29;100008.47;;;10.00;86.99
79455;BME280;68900;52.134;5.420;2023-04-24T03:26:56;100006.78;;;9.99;87.36
79455;BME280;68900;52.134;5.420;2023-04-24T03:29:29;100007.97;;;9.97;87.86
79455;BME280;68900;52.134;5.420;2023-04-24T03:31:55;100021.44;;;9.97;87.67
79455;BME280;68900;52.134;5.420;2023-04-24T03:34:23;100019.91;;;9.94;87.41
79455;BME280;68900;52.134;5.420;2023-04-24T03:36:50;100022.44;;;9.96;87.40
79455;BME280;68900;52.134;5.420;2023-04-24T03:39:17;100026.16;;;9.95;87.27
79455;BME280;68900;52.134;5.420;2023-04-24T03:41:44;100028.69;;;9.96;87.75
79455;BME280;68900;52.134;5.420;2023-04-24T03:44:10;100022.44;;;9.96;87.24
79455;BME280;68900;52.134;5.420;2023-04-24T03:46:42;100022.78;;;9.93;87.23
79455;BME280;68900;52.134;5.420;2023-04-24T03:49:09;100019.09;;;9.94;87.45
79455;BME280;68900;52.134;5.420;2023-04-24T03:51:35;100014.53;;;9.94;87.42
79455;BME280;68900;52.134;5.420;2023-04-24T03:54:03;100018.91;;;9.95;87.89
79455;BME280;68900;52.134;5.420;2023-04-24T03:56:29;100018.91;;;9.95;87.56
79455;BME280;68900;52.134;5.420;2023-04-24T03:59:05;100021.09;;;9.92;87.99
79455;BME280;68900;52.134;5.420;2023-04-24T04:01:34;100024.50;;;9.94;87.98
79455;BME280;68900;52.134;5.420;2023-04-24T04:04:03;100029.88;;;9.94;87.64
79455;BME280;68900;52.134;5.420;2023-04-24T04:06:31;100032.56;;;9.94;86.72
79455;BME280;68900;52.134;5.420;2023-04-24T04:08:58;100031.38;;;9.88;86.38
79455;BME280;68900;52.134;5.420;2023-04-24T04:11:25;100034.22;;;9.87;87.38
79455;BME280;68900;52.134;5.420;2023-04-24T04:13:51;100037.09;;;9.85;86.68
79455;BME280;68900;52.134;5.420;2023-04-24T04:16:18;100033.88;;;9.82;86.62
79455;BME280;68900;52.134;5.420;2023-04-24T04:18:45;100041.81;;;9.83;87.42
79455;BME280;68900;52.134;5.420;2023-04-24T04:21:11;100041.66;;;9.85;86.64
79455;BME280;68900;52.134;5.420;2023-04-24T04:23:38;100037.28;;;9.84;86.70
79455;BME280;68900;52.134;5.420;2023-04-24T04:26:06;100036.56;;;9.82;87.48
79455;BME280;68900;52.134;5.420;2023-04-24T04:28:36;100035.22;;;9.77;87.15
79455;BME280;68900;52.134;5.420;2023-04-24T04:31:28;100044.16;;;9.78;87.13
79455;BME280;68900;52.134;5.420;2023-04-24T04:33:55;100046.00;;;9.77;88.06
79455;BME280;68900;52.134;5.420;2023-04-24T04:36:24;100054.94;;;9.70;87.42
79455;BME280;68900;52.134;5.420;2023-04-24T04:38:52;100051.88;;;9.65;87.96
79455;BME280;68900;52.134;5.420;2023-04-24T04:41:18;100057.06;;;9.58;88.31
79455;BME280;68900;52.134;5.420;2023-04-24T04:43:44;100064.16;;;9.59;89.26
79455;BME280;68900;52.134;5.420;2023-04-24T04:46:12;100062.16;;;9.61;89.53
79455;BME280;68900;52.134;5.420;2023-04-24T04:48:39;100067.03;;;9.66;89.83
79455;BME280;68900;52.134;5.420;2023-04-24T04:51:05;100071.38;;;9.67;89.45
79455;BME280;68900;52.134;5.420;2023-04-24T04:53:35;100073.25;;;9.66;89.30
79455;BME280;68900;52.134;5.420;2023-04-24T04:56:01;100079.31;;;9.68;90.06
79455;BME280;68900;52.134;5.420;2023-04-24T04:58:28;100076.47;;;9.70;89.28
79455;BME280;68900;52.134;5.420;2023-04-24T05:00:54;100086.06;;;9.72;89.74
79455;BME280;68900;52.134;5.420;2023-04-24T05:03:21;100081.50;;;9.73;89.06
79455;BME280;68900;52.134;5.420;2023-04-24T05:05:51;100085.75;;;9.75;89.56
79455;BME280;68900;52.134;5.420;2023-04-24T05:08:17;100100.72;;;9.78;89.68
79455;BME280;68900;52.134;5.420;2023-04-24T05:10:52;100104.25;;;9.79;88.68
79455;BME280;68900;52.134;5.420;2023-04-24T05:13:19;100101.41;;;9.80;88.68
79455;BME280;68900;52.134;5.420;2023-04-24T05:15:57;100101.22;;;9.82;89.17
79455;BME280;68900;52.134;5.420;2023-04-24T05:18:24;100099.03;;;9.85;88.84
79455;BME280;68900;52.134;5.420;2023-04-24T05:20:51;100112.19;;;9.88;88.54
79455;BME280;68900;52.134;5.420;2023-04-24T05:23:17;100109.50;;;9.88;89.08
79455;BME280;68900;52.134;5.420;2023-04-24T05:25:47;100110.16;;;9.90;87.57
79455;BME280;68900;52.134;5.420;2023-04-24T05:28:13;100115.56;;;9.90;88.57
79455;BME280;68900;52.134;5.420;2023-04-24T05:30:40;100123.47;;;9.92;87.99
79455;BME280;68900;52.134;5.420;2023-04-24T05:33:06;100137.97;;;9.91;88.12
79455;BME280;68900;52.134;5.420;2023-04-24T05:35:33;100140.84;;;9.89;88.62
79455;BME280;68900;52.134;5.420;2023-04-24T05:37:59;100136.44;;;9.88;88.06
79455;BME280;68900;52.134;5.420;2023-04-24T05:40:26;100141.66;;;9.90;88.50
79455;BME280;68900;52.134;5.420;2023-04-24T05:42:52;100155.13;;;9.90;88.83
79455;BME280;68900;52.134;5.420;2023-04-24T05:45:19;100159.50;;;9.91;88.53
79455;BME280;68900;52.134;5.420;2023-04-24T05:47:45;100165.91;;;9.90;87.96
79455;BME280;68900;52.134;5.420;2023-04-24T05:50:12;100166.38;;;9.85;87.58
79455;BME280;68900;52.134;5.420;2023-04-24T05:52:46;100167.72;;;9.81;88.17
79455;BME280;68900;52.134;5.420;2023-04-24T06:03:45;100190.78;;;9.75;88.00
79455;BME280;68900;52.134;5.420;2023-04-24T06:06:12;100187.75;;;9.70;87.76
79455;BME280;68900;52.134;5.420;2023-04-24T06:08:42;100191.44;;;9.69;87.45
79455;BME280;68900;52.134;5.420;2023-04-24T06:11:13;100200.50;;;9.68;87.90
79455;BME280;68900;52.134;5.420;2023-04-24T06:13:46;100208.94;;;9.65;87.71
79455;BME280;68900;52.134;5.420;2023-04-24T06:16:17;100208.06;;;9.65;87.82
79455;BME280;68900;52.134;5.420;2023-04-24T06:54:41;100294.88;;;9.33;88.20
79455;BME280;68900;52.134;5.420;2023-04-24T06:57:08;100306.28;;;9.27;88.15
79455;BME280;68900;52.134;5.420;2023-04-24T06:59:50;100311.81;;;9.25;88.58
79455;BME280;68900;52.134;5.420;2023-04-24T07:02:27;100314.19;;;9.28;88.61
79455;BME280;68900;52.134;5.420;2023-04-24T07:04:54;100320.56;;;9.27;88.18
79455;BME280;68900;52.134;5.420;2023-04-24T07:07:37;100324.41;;;9.25;88.86
79455;BME280;68900;52.134;5.420;2023-04-24T07:10:07;100332.66;;;9.23;88.61
79455;BME280;68900;52.134;5.420;2023-04-24T07:15:10;100344.03;;;9.17;88.65
79455;BME280;68900;52.134;5.420;2023-04-24T07:17:39;100355.25;;;9.13;88.33
79455;BME280;68900;52.134;5.420;2023-04-24T07:20:10;100365.19;;;9.12;88.14
79455;BME280;68900;52.134;5.420;2023-04-24T07:22:38;100369.03;;;9.10;88.50
79455;BME280;68900;52.134;5.420;2023-04-24T07:25:05;100378.09;;;9.09;87.74
79455;BME280;68900;52.134;5.420;2023-04-24T07:27:31;100388.16;;;9.07;88.08
79455;BME280;68900;52.134;5.420;2023-04-24T07:29:58;100395.41;;;9.06;88.29
79455;BME280;68900;52.134;5.420;2023-04-24T07:32:24;100394.56;;;9.06;88.20
79455;BME280;68900;52.134;5.420;2023-04-24T07:34:51;100409.16;;;9.03;87.82
79455;BME280;68900;52.134;5.420;2023-04-24T07:37:18;100411.97;;;9.02;87.95
79455;BME280;68900;52.134;5.420;2023-04-24T07:39:45;100410.69;;;9.06;87.48
79455;BME280;68900;52.134;5.420;2023-04-24T07:42:12;100426.53;;;9.09;88.12
79455;BME280;68900;52.134;5.420;2023-04-24T08:07:05;100455.06;;;9.19;87.57
79455;BME280;68900;52.134;5.420;2023-04-24T08:09:32;100478.44;;;9.19;88.03
79455;BME280;68900;52.134;5.420;2023-04-24T08:12:01;100480.16;;;9.20;87.86
79455;BME280;68900;52.134;5.420;2023-04-24T08:15:10;100487.81;;;9.15;87.52
79455;BME280;68900;52.134;5.420;2023-04-24T08:17:45;100494.25;;;9.04;87.57
79455;BME280;68900;52.134;5.420;2023-04-24T08:20:12;100503.44;;;9.02;87.50
79455;BME280;68900;52.134;5.420;2023-04-24T08:22:42;100506.75;;;8.96;88.34
79455;BME280;68900;52.134;5.420;2023-04-24T08:25:10;100509.59;;;8.94;87.71
79455;BME280;68900;52.134;5.420;2023-04-24T08:27:37;100522.50;;;8.91;87.60
79455;BME280;68900;52.134;5.420;2023-04-24T08:30:04;100533.00;;;8.84;88.13
79455;BME280;68900;52.134;5.420;2023-04-24T08:32:35;100536.25;;;8.88;88.50
79455;BME280;68900;52.134;5.420;2023-04-24T08:35:02;100551.81;;;8.84;87.77
79455;BME280;68900;52.134;5.420;2023-04-24T08:37:29;100543.22;;;8.80;88.01
79455;BME280;68900;52.134;5.420;2023-04-24T08:39:56;100553.84;;;8.82;88.40
79455;BME280;68900;52.134;5.420;2023-04-24T08:42:23;100558.75;;;8.86;87.70
79455;BME280;68900;52.134;5.420;2023-04-24T08:44:53;100564.84;;;8.88;88.06
79455;BME280;68900;52.134;5.420;2023-04-24T08:47:21;100559.19;;;8.92;87.75
79455;BME280;68900;52.134;5.420;2023-04-24T08:49:49;100560.41;;;8.97;88.67
79455;BME280;68900;52.134;5.420;2023-04-24T08:52:18;100571.56;;;9.02;87.34
79455;BME280;68900;52.134;5.420;2023-04-24T08:54:45;100577.81;;;9.03;87.64
79455;BME280;68900;52.134;5.420;2023-04-24T08:57:14;100577.13;;;9.01;86.92
79455;BME280;68900;52.134;5.420;2023-04-24T08:59:41;100591.13;;;9.04;86.46
79455;BME280;68900;52.134;5.420;2023-04-24T09:02:10;100591.41;;;9.01;85.34
79455;BME280;68900;52.134;5.420;2023-04-24T09:04:42;100589.19;;;8.97;85.20
79455;BME280;68900;52.134;5.420;2023-04-24T09:07:10;100601.91;;;8.95;85.05
79455;BME280;68900;52.134;5.420;2023-04-24T09:09:56;100600.06;;;8.95;84.78
79455;BME280;68900;52.134;5.420;2023-04-24T09:12:23;100609.00;;;8.96;84.57
79455;BME280;68900;52.134;5.420;2023-04-24T09:14:50;100606.84;;;8.99;84.78
79455;BME280;68900;52.134;5.420;2023-04-24T09:17:17;100617.47;;;9.01;83.58
79455;BME280;68900;52.134;5.420;2023-04-24T09:19:43;100611.06;;;9.02;83.74
79455;BME280;68900;52.134;5.420;2023-04-24T09:22:11;100614.19;;;9.07;84.62
79455;BME280;68900;52.134;5.420;2023-04-24T09:24:38;100614.44;;;9.13;83.45
79455;BME280;68900;52.134;5.420;2023-04-24T09:27:04;100628.19;;;9.20;84.54
79455;BME280;68900;52.134;5.420;2023-04-24T09:29:31;100632.25;;;9.24;83.88
79455;BME280;68900;52.134;5.420;2023-04-24T09:31:59;100636.59;;;9.35;84.61
79455;BME280;68900;52.134;5.420;2023-04-24T09:34:27;100631.31;;;9.43;83.16
79455;BME280;68900;52.134;5.420;2023-04-24T09:36:54;100654.81;;;9.50;83.15
79455;BME280;68900;52.134;5.420;2023-04-24T09:39:21;100645.88;;;9.50;82.73
79455;BME280;68900;52.134;5.420;2023-04-24T09:41:53;100644.13;;;9.58;81.87
79455;BME280;68900;52.134;5.420;2023-04-24T09:44:27;100644.22;;;9.66;82.19
79455;BME280;68900;52.134;5.420;2023-04-24T09:46:56;100654.66;;;9.79;81.83
79455;BME280;68900;52.134;5.420;2023-04-24T09:49:24;100667.81;;;9.82;81.78
79455;BME280;68900;52.134;5.420;2023-04-24T09:52:07;100684.81;;;9.83;81.72
79455;BME280;68900;52.134;5.420;2023-04-24T09:54:33;100671.00;;;9.68;80.30
79455;BME280;68900;52.134;5.420;2023-04-24T09:57:02;100679.75;;;9.52;79.41
79455;BME280;68900;52.134;5.420;2023-04-24T09:59:30;100680.34;;;9.46;79.86
79455;BME280;68900;52.134;5.420;2023-04-24T10:01:56;100677.78;;;9.45;79.82
79455;BME280;68900;52.134;5.420;2023-04-24T10:04:28;100676.66;;;9.47;80.14
79455;BME280;68900;52.134;5.420;2023-04-24T10:07:19;100681.00;;;9.48;79.32
79455;BME280;68900;52.134;5.420;2023-04-24T10:09:45;100682.13;;;9.55;80.01
79455;BME280;68900;52.134;5.420;2023-04-24T10:12:12;100684.91;;;9.63;79.28
79455;BME280;68900;52.134;5.420;2023-04-24T10:14:39;100696.41;;;9.65;78.47
79455;BME280;68900;52.134;5.420;2023-04-24T10:17:09;100693.72;;;9.65;78.51
79455;BME280;68900;52.134;5.420;2023-04-24T10:19:36;100703.47;;;9.66;78.80
79455;BME280;68900;52.134;5.420;2023-04-24T10:22:03;100702.34;;;9.69;78.51
79455;BME280;68900;52.134;5.420;2023-04-24T10:28:22;100703.72;;;9.73;77.57
79455;BME280;68900;52.134;5.420;2023-04-24T10:30:51;100713.25;;;9.67;77.68
79455;BME280;68900;52.134;5.420;2023-04-24T10:33:22;100715.22;;;9.75;77.55
79455;BME280;68900;52.134;5.420;2023-04-24T10:35:50;100705.84;;;9.79;76.63
79455;BME280;68900;52.134;5.420;2023-04-24T10:48:33;100727.38;;;10.34;75.95
79455;BME280;68900;52.134;5.420;2023-04-24T10:51:00;100723.69;;;10.35;75.48
79455;BME280;68900;52.134;5.420;2023-04-24T10:53:28;100732.13;;;10.22;73.98
79455;BME280;68900;52.134;5.420;2023-04-24T10:56:09;100741.25;;;10.11;75.55
79455;BME280;68900;52.134;5.420;2023-04-24T10:58:58;100737.75;;;10.01;75.12
79455;BME280;68900;52.134;5.420;2023-04-24T11:01:29;100740.50;;;9.92;75.00
79455;BME280;68900;52.134;5.420;2023-04-24T11:04:00;100744.81;;;9.85;75.26
79455;BME280;68900;52.134;5.420;2023-04-24T11:06:34;100751.19;;;9.84;75.60
79455;BME280;68900;52.134;5.420;2023-04-24T11:09:07;100743.38;;;9.81;75.97
79455;BME280;68900;52.134;5.420;2023-04-24T11:11:37;100745.41;;;9.79;76.11
79455;BME280;68900;52.134;5.420;2023-04-24T11:14:07;100762.00;;;9.74;76.70
79455;BME280;68900;52.134;5.420;2023-04-24T11:16:54;100767.13;;;9.67;76.86
79455;BME280;68900;52.134;5.420;2023-04-24T11:19:29;100776.19;;;9.66;76.60
79455;BME280;68900;52.134;5.420;2023-04-24T11:22:04;100774.97;;;9.61;78.11
79455;BME280;68900;52.134;5.420;2023-04-24T11:24:49;100784.78;;;9.52;78.22
79455;BME280;68900;52.134;5.420;2023-04-24T11:27:18;100790.00;;;9.54;79.81
79455;BME280;68900;52.134;5.420;2023-04-24T11:30:03;100776.09;;;9.58;78.16
79455;BME280;68900;52.134;5.420;2023-04-24T11:35:18;100787.50;;;9.80;78.64
79455;BME280;68900;52.134;5.420;2023-04-24T11:37:46;100786.59;;;9.98;78.53
79455;BME280;68900;52.134;5.420;2023-04-24T11:40:34;100789.91;;;10.19;78.36
79455;BME280;68900;52.134;5.420;2023-04-24T11:43:06;100782.66;;;10.20;78.06
79455;BME280;68900;52.134;5.420;2023-04-24T11:45:33;100783.66;;;10.19;76.85
79455;BME280;68900;52.134;5.420;2023-04-24T11:48:05;100796.69;;;10.24;78.33
79455;BME280;68900;52.134;5.420;2023-04-24T11:50:32;100798.47;;;10.33;76.18
79455;BME280;68900;52.134;5.420;2023-04-24T11:52:59;100798.03;;;10.37;76.64
79455;BME280;68900;52.134;5.420;2023-04-24T11:55:34;100795.66;;;10.52;75.57
79455;BME280;68900;52.134;5.420;2023-04-24T11:58:14;100802.59;;;10.54;72.77
79455;BME280;68900;52.134;5.420;2023-04-24T12:00:40;100822.63;;;10.52;72.62
79455;BME280;68900;52.134;5.420;2023-04-24T12:03:09;100811.38;;;10.56;73.06
79455;BME280;68900;52.134;5.420;2023-04-24T12:05:36;100816.00;;;10.64;73.78
79455;BME280;68900;52.134;5.420;2023-04-24T12:08:03;100821.25;;;10.66;72.84
79455;BME280;68900;52.134;5.420;2023-04-24T12:10:32;100828.38;;;10.67;73.45
79455;BME280;68900;52.134;5.420;2023-04-24T12:12:59;100833.91;;;10.65;73.31
79455;BME280;68900;52.134;5.420;2023-04-24T12:15:27;100833.38;;;10.61;72.00
79455;BME280;68900;52.134;5.420;2023-04-24T12:17:54;100831.13;;;10.57;71.71
79455;BME280;68900;52.134;5.420;2023-04-24T12:20:30;100837.97;;;10.51;71.66
79455;BME280;68900;52.134;5.420;2023-04-24T12:22:58;100841.25;;;10.45;71.41
79455;BME280;68900;52.134;5.420;2023-04-24T12:32:18;100850.06;;;10.20;71.47
79455;BME280;68900;52.134;5.420;2023-04-24T12:34:44;100849.94;;;10.22;71.75
79455;BME280;68900;52.134;5.420;2023-04-24T12:37:19;100852.41;;;10.33;72.43
79455;BME280;68900;52.134;5.420;2023-04-24T12:40:06;100861.03;;;10.36;71.73
79455;BME280;68900;52.134;5.420;2023-04-24T12:42:34;100864.19;;;10.32;69.72
79455;BME280;68900;52.134;5.420;2023-04-24T12:45:04;100856.53;;;10.27;69.82
79455;BME280;68900;52.134;5.420;2023-04-24T12:51:33;100873.88;;;10.15;69.68
79455;BME280;68900;52.134;5.420;2023-04-24T12:54:05;100878.31;;;10.16;70.05
79455;BME280;68900;52.134;5.420;2023-04-24T13:08:02;100905.75;;;9.83;73.67
79455;BME280;68900;52.134;5.420;2023-04-24T13:10:34;100915.44;;;9.75;73.79
79455;BME280;68900;52.134;5.420;2023-04-24T13:13:01;100904.91;;;9.72;75.27
79455;BME280;68900;52.134;5.420;2023-04-24T13:15:29;100907.19;;;9.77;75.23
79455;BME280;68900;52.134;5.420;2023-04-24T13:18:02;100901.53;;;9.80;74.06
79455;BME280;68900;52.134;5.420;2023-04-24T13:20:50;100897.66;;;9.83;74.82
79455;BME280;68900;52.134;5.420;2023-04-24T13:29:07;100905.28;;;10.16;72.95
79455;BME280;68900;52.134;5.420;2023-04-24T13:32:04;100900.66;;;10.36;72.24
79455;BME280;68900;52.134;5.420;2023-04-24T13:54:57;100905.22;;;10.62;69.09
79455;BME280;68900;52.134;5.420;2023-04-24T13:57:23;100915.38;;;10.69;67.92
79455;BME280;68900;52.134;5.420;2023-04-24T13:59:50;100916.84;;;10.63;67.23
79455;BME280;68900;52.134;5.420;2023-04-24T14:02:16;100919.50;;;10.73;67.68
79455;BME280;68900;52.134;5.420;2023-04-24T14:04:43;100915.91;;;10.82;67.00
79455;BME280;68900;52.134;5.420;2023-04-24T14:07:12;100903.00;;;10.76;66.56
79455;BME280;68900;52.134;5.420;2023-04-24T14:09:39;100913.09;;;10.74;66.49
79455;BME280;68900;52.134;5.420;2023-04-24T14:12:05;100917.22;;;10.95;66.56
79455;BME280;68900;52.134;5.420;2023-04-24T14:14:33;100913.81;;;10.93;65.82
79455;BME280;68900;52.134;5.420;2023-04-24T14:17:03;100905.78;;;10.84;65.37
79455;BME280;68900;52.134;5.420;2023-04-24T14:19:30;100913.94;;;10.74;65.66
79455;BME280;68900;52.134;5.420;2023-04-24T14:35:07;100923.56;;;11.04;64.89
79455;BME280;68900;52.134;5.420;2023-04-24T14:37:46;100924.53;;;10.85;64.15
79455;BME280;68900;52.134;5.420;2023-04-24T14:43:23;100938.00;;;10.68;64.35
79455;BME280;68900;52.134;5.420;2023-04-24T14:46:04;100938.19;;;10.56;65.45
79455;BME280;68900;52.134;5.420;2023-04-24T15:25:43;100988.84;;;9.68;71.79
79455;BME280;68900;52.134;5.420;2023-04-24T15:28:11;100985.03;;;9.61;72.39
79455;BME280;68900;52.134;5.420;2023-04-24T15:31:02;100990.69;;;9.67;72.00
79455;BME280;68900;52.134;5.420;2023-04-24T15:36:55;100986.28;;;9.66;71.53
79455;BME280;68900;52.134;5.420;2023-04-24T16:29:46;100995.78;;;9.99;65.93
79455;BME280;68900;52.134;5.420;2023-04-24T16:32:26;100995.94;;;9.98;65.50
79455;BME280;68900;52.134;5.420;2023-04-24T16:35:14;101001.88;;;10.11;66.69
79455;BME280;68900;52.134;5.420;2023-04-24T16:37:52;100998.78;;;10.15;63.98
79455;BME280;68900;52.134;5.420;2023-04-24T16:40:28;101008.38;;;10.08;64.56
79455;BME280;68900;52.134;5.420;2023-04-24T16:43:25;101017.19;;;10.01;64.94
79455;BME280;68900;52.134;5.420;2023-04-24T16:45:53;101015.50;;;10.00;66.38
79455;BME280;68900;52.134;5.420;2023-04-24T16:48:28;101017.50;;;9.98;66.14
79455;BME280;68900;52.134;5.420;2023-04-24T16:51:04;101026.69;;;9.95;66.46
79455;BME280;68900;52.134;5.420;2023-04-24T17:00:12;101031.66;;;9.81;67.78
79455;BME280;68900;52.134;5.420;2023-04-24T17:02:45;101029.56;;;9.74;68.85
79455;BME280;68900;52.134;5.420;2023-04-24T17:09:05;101022.59;;;9.82;68.25
79455;BME280;68900;52.134;5.420;2023-04-24T17:11:31;101022.91;;;9.79;68.86
79455;BME280;68900;52.134;5.420;2023-04-24T19:40:00;101134.78;;;8.72;73.83
79455;BME280;68900;52.134;5.420;2023-04-24T19:46:44;101134.84;;;8.61;74.56
79455;BME280;68900;52.134;5.420;2023-04-24T19:49:29;101136.16;;;8.67;74.12
79455;BME280;68900;52.134;5.420;2023-04-24T19:52:25;101131.75;;;8.66;74.51
79455;BME280;68900;52.134;5.420;2023-04-24T19:58:12;101139.97;;;8.64;74.89
79455;BME280;68900;52.134;5.420;2023-04-24T20:01:40;101141.47;;;8.57;75.29
79455;BME280;68900;52.134;5.420;2023-04-24T20:04:11;101140.31;;;8.50;75.76
79455;BME280;68900;52.134;5.420;2023-04-24T20:06:40;101141.16;;;8.51;76.12
79455;BME280;68900;52.134;5.420;2023-04-24T20:20:53;101149.28;;;8.39;77.32